Time;durP1;ratioP1;P1;durP2;ratioP2;P2;SDS_P1;SDS_P2;PMS_P1;PMS_P2;Temp;Humidity;BMP_temperature;BMP_pressure;BME280_temperature;BME280_humidity;BME280_pressure;Samples;Min_cycle;Max_cycle;Signal;HPM_P1;HPM_P2
2022/11/08 00:01:38;;;;;;;;;;;11.60;99.90;;;;;;5032080;28;19925;-80
2022/11/08 00:04:06;;;;;;;;;;;11.60;99.90;;;;;;5047699;28;20441;-78
2022/11/08 00:14:47;;;;;;;;;;;11.80;99.90;;;;;;5031276;28;20487;-80
2022/11/08 00:17:15;;;;;;;;;;;11.80;99.90;;;;;;5054223;28;19954;-80
2022/11/08 00:19:42;;;;;;;;;;;11.90;99.90;;;;;;5040368;28;19936;-79
2022/11/08 00:22:09;;;;;;;;;;;12.00;99.90;;;;;;5030441;28;20407;-80
2022/11/08 00:24:35;;;;;;;;;;;12.10;99.90;;;;;;5047602;28;20070;-78
2022/11/08 00:27:03;;;;;;;;;;;12.20;99.90;;;;;;5031525;28;20267;-80
2022/11/08 00:29:30;;;;;;;;;;;12.30;99.90;;;;;;5047531;28;20313;-79
2022/11/08 00:31:59;;;;;;;;;;;12.40;99.90;;;;;;5034688;28;19928;-79
2022/11/08 00:34:25;;;;;;;;;;;12.50;99.90;;;;;;5031687;28;19935;-79
2022/11/08 00:36:53;;;;;;;;;;;12.50;99.90;;;;;;5031320;28;20396;-79
2022/11/08 00:39:20;;;;;;;;;;;11.10;99.90;;;;;;5050567;28;19936;-80
2022/11/08 00:41:47;;;;;;;;;;;12.60;99.90;;;;;;5034106;28;19963;-80
2022/11/08 00:44:17;;;;;;;;;;;12.80;99.90;;;;;;5030873;28;20372;-79
2022/11/08 00:46:44;;;;;;;;;;;12.80;99.90;;;;;;5033407;28;19933;-79
2022/11/08 00:49:12;;;;;;;;;;;12.80;99.90;;;;;;5030634;28;20375;-79
2022/11/08 00:51:39;;;;;;;;;;;12.80;99.90;;;;;;5054426;28;19990;-79
2022/11/08 00:54:07;;;;;;;;;;;12.90;99.90;;;;;;5030366;28;19963;-79
2022/11/08 00:56:34;;;;;;;;;;;12.90;99.90;;;;;;5047873;28;19932;-79
2022/11/08 00:59:01;;;;;;;;;;;12.90;99.90;;;;;;5051684;28;19925;-79
2022/11/08 01:01:29;;;;;;;;;;;13.00;99.90;;;;;;5031955;28;20311;-79
2022/11/08 01:03:56;;;;;;;;;;;13.00;99.90;;;;;;5030740;28;19987;-80
2022/11/08 01:06:25;;;;;;;;;;;12.90;99.90;;;;;;5032855;28;19924;-79
2022/11/08 01:08:52;;;;;;;;;;;12.90;99.90;;;;;;5036535;28;19928;-79
2022/11/08 01:11:20;;;;;;;;;;;12.90;99.90;;;;;;5031328;28;19964;-80
2022/11/08 01:13:47;;;;;;;;;;;12.90;99.90;;;;;;5031884;28;20435;-81
2022/11/08 01:16:15;;;;;;;;;;;12.90;99.90;;;;;;5062838;28;19978;-79
2022/11/08 01:18:42;;;;;;;;;;;13.00;99.90;;;;;;5035534;28;20280;-80
2022/11/08 01:21:10;;;;;;;;;;;13.00;99.90;;;;;;5051894;28;19931;-80
2022/11/08 01:23:38;;;;;;;;;;;13.00;99.90;;;;;;5037125;28;20291;-79
2022/11/08 01:26:06;;;;;;;;;;;13.00;99.90;;;;;;5042270;28;19933;-79
2022/11/08 01:28:33;;;;;;;;;;;13.10;99.90;;;;;;5030316;28;20019;-79
2022/11/08 01:31:03;;;;;;;;;;;13.10;99.90;;;;;;5030630;28;19939;-79
2022/11/08 01:33:32;;;;;;;;;;;13.10;99.90;;;;;;5040094;28;19936;-79
2022/11/08 01:36:01;;;;;;;;;;;13.10;99.90;;;;;;5032135;28;19925;-81
2022/11/08 01:38:28;;;;;;;;;;;13.10;99.90;;;;;;5034057;28;19936;-79
2022/11/08 01:40:57;;;;;;;;;;;13.10;99.90;;;;;;5060676;28;19932;-81
2022/11/08 01:43:38;;;;;;;;;;;13.10;99.90;;;;;;5047898;28;19925;-82
2022/11/08 01:46:29;;;;;;;;;;;13.00;99.90;;;;;;5046839;28;19928;-83
2022/11/08 01:48:58;;;;;;;;;;;13.00;99.90;;;;;;5035855;28;20363;-80
2022/11/08 01:51:27;;;;;;;;;;;12.90;99.90;;;;;;5056819;28;19933;-81
2022/11/08 01:53:55;;;;;;;;;;;12.80;99.90;;;;;;5054434;28;19928;-81
2022/11/08 01:56:24;;;;;;;;;;;12.70;99.90;;;;;;5054971;28;19929;-81
2022/11/08 01:58:52;;;;;;;;;;;12.70;99.90;;;;;;5053630;28;20627;-80
2022/11/08 02:01:19;;;;;;;;;;;12.60;99.90;;;;;;5054737;28;19925;-81
2022/11/08 02:03:46;;;;;;;;;;;12.50;99.90;;;;;;5059599;28;19999;-80
2022/11/08 02:06:13;;;;;;;;;;;12.50;99.90;;;;;;5035735;28;19933;-80
2022/11/08 02:08:41;;;;;;;;;;;12.40;99.90;;;;;;5038735;28;19924;-81
2022/11/08 02:11:11;;;;;;;;;;;12.40;99.90;;;;;;5057479;28;19935;-81
2022/11/08 02:13:40;;;;;;;;;;;12.30;99.90;;;;;;5041803;28;19955;-81
2022/11/08 02:16:10;;;;;;;;;;;12.30;99.90;;;;;;5037028;28;19928;-81
2022/11/08 02:18:37;;;;;;;;;;;12.30;99.90;;;;;;5050042;28;19982;-80
2022/11/08 02:21:07;;;;;;;;;;;12.10;99.90;;;;;;5048506;28;19925;-81
2022/11/08 02:23:42;;;;;;;;;;;12.20;99.90;;;;;;5037145;28;19931;-80
2022/11/08 02:26:11;;;;;;;;;;;12.10;99.90;;;;;;5046683;28;19936;-80
2022/11/08 02:28:38;;;;;;;;;;;13.10;99.90;;;;;;5037058;28;19944;-80
2022/11/08 02:31:05;;;;;;;;;;;12.10;99.90;;;;;;5051549;28;20338;-80
2022/11/08 02:33:32;;;;;;;;;;;12.10;99.90;;;;;;5049659;28;19928;-80
2022/11/08 02:35:59;;;;;;;;;;;12.00;99.90;;;;;;5039205;28;19978;-80
2022/11/08 02:38:28;;;;;;;;;;;12.00;99.90;;;;;;5053779;28;19925;-80
2022/11/08 02:40:57;;;;;;;;;;;12.00;99.90;;;;;;5029800;28;19944;-80
2022/11/08 02:43:24;;;;;;;;;;;11.90;99.90;;;;;;5037252;28;20364;-80
2022/11/08 02:45:51;;;;;;;;;;;11.90;99.90;;;;;;5036626;28;19936;-80
2022/11/08 02:48:19;;;;;;;;;;;12.00;99.90;;;;;;5036217;28;20452;-80
2022/11/08 02:50:46;;;;;;;;;;;11.90;99.90;;;;;;5040986;28;19997;-80
2022/11/08 02:53:16;;;;;;;;;;;12.00;99.90;;;;;;5041788;28;20011;-80
2022/11/08 02:55:43;;;;;;;;;;;11.90;99.90;;;;;;5074874;28;19928;-80
2022/11/08 02:58:11;;;;;;;;;;;11.90;99.90;;;;;;5044980;28;19978;-80
2022/11/08 03:00:38;;;;;;;;;;;11.80;99.90;;;;;;5036394;28;19983;-80
2022/11/08 03:03:05;;;;;;;;;;;11.80;99.90;;;;;;5040410;28;19929;-80
2022/11/08 03:05:33;;;;;;;;;;;11.80;99.90;;;;;;5033131;28;19924;-79
2022/11/08 03:07:59;;;;;;;;;;;11.80;99.90;;;;;;5059828;28;19933;-81
2022/11/08 03:10:27;;;;;;;;;;;11.80;99.90;;;;;;5052511;28;20019;-80
2022/11/08 03:12:55;;;;;;;;;;;11.80;99.90;;;;;;5041086;28;19929;-80
2022/11/08 03:15:23;;;;;;;;;;;11.80;99.90;;;;;;5053783;28;20406;-80
2022/11/08 03:17:50;;;;;;;;;;;11.80;99.90;;;;;;5035815;28;19955;-80
2022/11/08 03:20:18;;;;;;;;;;;11.80;99.90;;;;;;5053910;28;20580;-80
2022/11/08 03:22:46;;;;;;;;;;;11.80;99.90;;;;;;5058224;28;19925;-80
2022/11/08 03:25:12;;;;;;;;;;;11.80;99.90;;;;;;5058982;28;19959;-80
2022/11/08 03:27:40;;;;;;;;;;;11.80;99.90;;;;;;5052571;28;19948;-80
2022/11/08 03:30:07;;;;;;;;;;;11.80;99.90;;;;;;5054888;28;20386;-80
2022/11/08 03:32:35;;;;;;;;;;;11.80;99.90;;;;;;5069244;28;20330;-80
2022/11/08 03:35:02;;;;;;;;;;;11.90;99.90;;;;;;5053017;28;19928;-80
2022/11/08 03:37:29;;;;;;;;;;;11.90;99.90;;;;;;5034793;28;19979;-81
2022/11/08 03:39:56;;;;;;;;;;;11.90;99.90;;;;;;5040346;28;20604;-79
2022/11/08 03:42:22;;;;;;;;;;;11.80;99.90;;;;;;5042752;28;19936;-79
2022/11/08 03:44:49;;;;;;;;;;;11.80;99.90;;;;;;5053490;28;19933;-80
2022/11/08 03:47:16;;;;;;;;;;;11.80;99.90;;;;;;5043138;28;19964;-80
2022/11/08 03:49:44;;;;;;;;;;;11.80;99.90;;;;;;5036826;28;19929;-80
2022/11/08 03:52:12;;;;;;;;;;;11.80;99.90;;;;;;5047724;28;19929;-79
2022/11/08 03:54:39;;;;;;;;;;;11.80;99.90;;;;;;5049569;28;19968;-79
2022/11/08 03:57:06;;;;;;;;;;;11.80;99.90;;;;;;5046387;28;19932;-79
2022/11/08 03:59:32;;;;;;;;;;;11.80;99.90;;;;;;5053380;28;19929;-80
2022/11/08 04:02:00;;;;;;;;;;;11.80;99.90;;;;;;5033997;28;19940;-80
2022/11/08 04:04:26;;;;;;;;;;;11.80;99.90;;;;;;5038436;28;19928;-79
2022/11/08 04:06:55;;;;;;;;;;;11.80;99.90;;;;;;5054446;28;20388;-81
2022/11/08 04:09:22;;;;;;;;;;;11.80;99.90;;;;;;5059436;28;19932;-80
2022/11/08 04:17:17;;;;;;;;;;;11.90;99.90;;;;;;5050437;28;19921;-81
2022/11/08 04:22:30;;;;;;;;;;;11.80;99.90;;;;;;5033242;28;20529;-81
2022/11/08 04:24:57;;;;;;;;;;;11.80;99.90;;;;;;5024879;28;19929;-81
2022/11/08 04:27:23;;;;;;;;;;;11.80;99.90;;;;;;5033599;28;20403;-81
2022/11/08 04:29:50;;;;;;;;;;;11.80;99.90;;;;;;5032518;28;19929;-82
2022/11/08 04:32:17;;;;;;;;;;;11.80;99.90;;;;;;5052563;28;19970;-81
2022/11/08 04:34:44;;;;;;;;;;;11.70;99.90;;;;;;5038719;28;19951;-80
2022/11/08 04:37:11;;;;;;;;;;;11.70;99.90;;;;;;5040380;28;19949;-79
2022/11/08 04:39:39;;;;;;;;;;;11.70;99.90;;;;;;5059055;28;19952;-80
2022/11/08 04:42:08;;;;;;;;;;;11.70;99.90;;;;;;5036790;28;19936;-80
2022/11/08 04:44:35;;;;;;;;;;;11.70;99.90;;;;;;5034782;28;19941;-80
2022/11/08 04:47:01;;;;;;;;;;;11.70;99.90;;;;;;5034789;28;19936;-80
2022/11/08 04:49:28;;;;;;;;;;;11.70;99.90;;;;;;5035517;28;19931;-81
2022/11/08 04:51:55;;;;;;;;;;;11.70;99.90;;;;;;5039295;28;19937;-80
2022/11/08 04:54:22;;;;;;;;;;;11.70;99.90;;;;;;5051058;28;19925;-81
2022/11/08 04:56:50;;;;;;;;;;;11.70;99.90;;;;;;5053179;28;20012;-81
2022/11/08 04:59:17;;;;;;;;;;;11.70;99.90;;;;;;5041036;28;19932;-81
2022/11/08 05:01:44;;;;;;;;;;;11.80;99.90;;;;;;5046928;28;19986;-80
2022/11/08 05:04:11;;;;;;;;;;;11.80;99.90;;;;;;5042929;28;19990;-80
2022/11/08 05:06:38;;;;;;;;;;;11.80;99.90;;;;;;5054648;28;19929;-80
2022/11/08 05:09:06;;;;;;;;;;;11.80;99.90;;;;;;5055571;28;20376;-79
2022/11/08 05:11:33;;;;;;;;;;;11.60;99.90;;;;;;5041279;28;19925;-78
2022/11/08 05:14:01;;;;;;;;;;;12.00;99.90;;;;;;5040061;28;19951;-78
2022/11/08 05:16:29;;;;;;;;;;;11.90;99.90;;;;;;5036803;28;19925;-78
2022/11/08 05:18:56;;;;;;;;;;;12.00;99.90;;;;;;5036568;28;19932;-78
2022/11/08 05:24:09;;;;;;;;;;;12.00;99.90;;;;;;5063217;28;19924;-78
2022/11/08 05:26:38;;;;;;;;;;;12.00;99.90;;;;;;5043410;28;19982;-79
2022/11/08 05:29:06;;;;;;;;;;;11.90;99.90;;;;;;5035945;28;19925;-77
2022/11/08 05:31:34;;;;;;;;;;;11.90;99.90;;;;;;5050946;28;20281;-79
2022/11/08 05:34:01;;;;;;;;;;;11.90;99.90;;;;;;5051767;28;19929;-79
2022/11/08 05:36:32;;;;;;;;;;;11.80;99.90;;;;;;5055540;28;19928;-78
2022/11/08 05:38:59;;;;;;;;;;;11.80;99.90;;;;;;5040850;28;20004;-78
2022/11/08 05:41:26;;;;;;;;;;;11.80;99.90;;;;;;5029858;28;20054;-77
2022/11/08 05:43:56;;;;;;;;;;;11.90;99.90;;;;;;5028223;28;20782;-78
2022/11/08 05:46:25;;;;;;;;;;;11.80;99.90;;;;;;5071597;28;20364;-78
2022/11/08 05:48:52;;;;;;;;;;;11.80;99.90;;;;;;5039343;28;19955;-78
2022/11/08 05:51:19;;;;;;;;;;;11.80;99.90;;;;;;5054973;28;20364;-78
2022/11/08 05:53:47;;;;;;;;;;;11.80;99.90;;;;;;5056342;28;20356;-77
2022/11/08 05:56:14;;;;;;;;;;;11.80;99.90;;;;;;5037335;28;19931;-76
2022/11/08 05:58:41;;;;;;;;;;;11.80;99.90;;;;;;5056369;28;19964;-77
2022/11/08 06:01:11;;;;;;;;;;;11.80;99.90;;;;;;5027245;28;20745;-76
2022/11/08 06:03:39;;;;;;;;;;;11.70;99.90;;;;;;5035246;28;19928;-76
2022/11/08 06:06:08;;;;;;;;;;;11.80;99.90;;;;;;5053812;28;19932;-75
2022/11/08 06:08:39;;;;;;;;;;;11.80;99.90;;;;;;5029682;28;19943;-76
2022/11/08 06:11:07;;;;;;;;;;;11.80;99.90;;;;;;5044871;28;19928;-76
2022/11/08 06:13:35;;;;;;;;;;;11.80;99.90;;;;;;5054612;28;19943;-76
2022/11/08 06:16:03;;;;;;;;;;;11.90;99.90;;;;;;5034604;28;20132;-76
2022/11/08 06:18:31;;;;;;;;;;;11.90;99.90;;;;;;5034417;28;21353;-77
2022/11/08 06:20:59;;;;;;;;;;;11.90;99.90;;;;;;5032927;28;20380;-77
2022/11/08 06:23:26;;;;;;;;;;;12.00;99.90;;;;;;5033950;28;19933;-77
2022/11/08 06:25:54;;;;;;;;;;;12.00;99.90;;;;;;5032522;28;20446;-78
2022/11/08 06:28:21;;;;;;;;;;;12.00;99.90;;;;;;5042063;28;19937;-81
2022/11/08 06:30:48;;;;;;;;;;;12.00;99.90;;;;;;5046288;28;19928;-79
2022/11/08 06:33:15;;;;;;;;;;;12.00;99.90;;;;;;5045130;28;20361;-77
2022/11/08 06:35:42;;;;;;;;;;;12.00;99.90;;;;;;5034116;28;19956;-77
2022/11/08 06:38:10;;;;;;;;;;;12.10;99.90;;;;;;5045745;28;19935;-79
2022/11/08 06:40:38;;;;;;;;;;;12.10;99.90;;;;;;5033002;28;20267;-77
2022/11/08 06:43:05;;;;;;;;;;;12.10;99.90;;;;;;5036289;28;19967;-79
2022/11/08 06:45:32;;;;;;;;;;;12.10;99.90;;;;;;5040506;28;19940;-77
2022/11/08 06:47:59;;;;;;;;;;;12.20;99.90;;;;;;5031290;28;20021;-76
2022/11/08 06:50:26;;;;;;;;;;;12.20;99.90;;;;;;5045848;28;19939;-78
2022/11/08 06:52:55;;;;;;;;;;;12.20;99.90;;;;;;5026259;28;20621;-77
2022/11/08 06:55:24;;;;;;;;;;;12.20;99.90;;;;;;5045332;28;19947;-77
2022/11/08 06:57:51;;;;;;;;;;;12.30;99.90;;;;;;5035432;28;20014;-78
2022/11/08 07:00:18;;;;;;;;;;;12.30;99.90;;;;;;5033593;28;19929;-79
2022/11/08 07:02:45;;;;;;;;;;;12.50;99.90;;;;;;5060420;28;19974;-77
2022/11/08 07:05:12;;;;;;;;;;;12.70;99.90;;;;;;5056164;28;20015;-78
2022/11/08 07:07:39;;;;;;;;;;;12.60;99.90;;;;;;5031057;28;19925;-79
2022/11/08 07:10:06;;;;;;;;;;;12.70;99.90;;;;;;5045473;28;19933;-78
2022/11/08 07:12:36;;;;;;;;;;;12.80;99.90;;;;;;5046002;28;20323;-77
2022/11/08 07:15:03;;;;;;;;;;;12.90;99.90;;;;;;5052621;28;19932;-79
2022/11/08 07:17:30;;;;;;;;;;;13.10;99.90;;;;;;5051366;28;20234;-78
2022/11/08 07:19:57;;;;;;;;;;;13.20;99.90;;;;;;5033642;28;20018;-78
2022/11/08 07:22:25;;;;;;;;;;;13.40;99.90;;;;;;5049779;28;19967;-78
2022/11/08 07:24:52;;;;;;;;;;;13.60;99.90;;;;;;5030252;28;19925;-78
2022/11/08 07:27:19;;;;;;;;;;;13.90;99.90;;;;;;5030852;28;19929;-79
2022/11/08 07:29:48;;;;;;;;;;;13.90;99.90;;;;;;5041939;28;20613;-77
2022/11/08 07:32:16;;;;;;;;;;;14.10;99.90;;;;;;5044130;28;19933;-78
2022/11/08 07:34:43;;;;;;;;;;;14.30;99.90;;;;;;5033800;28;19929;-78
2022/11/08 07:37:11;;;;;;;;;;;14.40;99.90;;;;;;5032298;28;20002;-79
2022/11/08 07:39:38;;;;;;;;;;;14.50;99.90;;;;;;5040927;28;19972;-79
2022/11/08 07:42:05;;;;;;;;;;;14.50;99.90;;;;;;5027550;28;19978;-78
2022/11/08 07:44:34;;;;;;;;;;;14.40;99.90;;;;;;5024002;28;19925;-78
2022/11/08 07:47:03;;;;;;;;;;;14.40;99.90;;;;;;5039433;28;19936;-86
2022/11/08 07:49:30;;;;;;;;;;;14.50;99.90;;;;;;5025764;28;19929;-78
2022/11/08 07:51:57;;;;;;;;;;;16.20;99.90;;;;;;5031375;28;19975;-78
2022/11/08 07:54:23;;;;;;;;;;;14.70;99.90;;;;;;5031637;28;19979;-82
2022/11/08 07:56:50;;;;;;;;;;;14.80;99.90;;;;;;5033941;28;19929;-79
2022/11/08 07:59:17;;;;;;;;;;;14.90;99.90;;;;;;5031625;28;19936;-77
2022/11/08 08:01:44;;;;;;;;;;;15.50;99.90;;;;;;5038493;28;20570;-78
2022/11/08 08:04:12;;;;;;;;;;;15.30;99.90;;;;;;5034789;28;19933;-80
2022/11/08 08:06:39;;;;;;;;;;;15.50;99.90;;;;;;5037863;28;19932;-77
2022/11/08 08:09:06;;;;;;;;;;;15.70;99.90;;;;;;5034429;28;19929;-77
2022/11/08 08:11:33;;;;;;;;;;;15.90;99.90;;;;;;5030227;28;19956;-78
2022/11/08 08:14:00;;;;;;;;;;;16.00;99.90;;;;;;5016832;28;20615;-79
2022/11/08 08:16:27;;;;;;;;;;;16.00;99.90;;;;;;5038332;28;19925;-79
2022/11/08 08:18:54;;;;;;;;;;;16.00;99.90;;;;;;5038512;28;20364;-79
2022/11/08 08:21:22;;;;;;;;;;;16.00;99.90;;;;;;5021126;28;20055;-80
2022/11/08 08:23:49;;;;;;;;;;;15.70;99.90;;;;;;5039947;28;19929;-82
2022/11/08 08:26:16;;;;;;;;;;;15.70;99.90;;;;;;5035931;28;19929;-77
2022/11/08 08:28:43;;;;;;;;;;;15.50;99.90;;;;;;5039188;28;19962;-77
2022/11/08 08:31:09;;;;;;;;;;;15.40;99.90;;;;;;5044126;28;19929;-78
2022/11/08 08:33:37;;;;;;;;;;;15.20;99.90;;;;;;5037189;28;19987;-79
2022/11/08 08:36:03;;;;;;;;;;;15.10;99.90;;;;;;5030390;28;20430;-78
2022/11/08 08:38:32;;;;;;;;;;;15.10;99.90;;;;;;5037677;28;19924;-78
2022/11/08 08:41:00;;;;;;;;;;;15.00;99.90;;;;;;5036515;28;19929;-80
2022/11/08 08:43:27;;;;;;;;;;;14.90;99.90;;;;;;5031822;28;20411;-78
2022/11/08 08:45:54;;;;;;;;;;;14.90;99.90;;;;;;5033241;28;19925;-78
2022/11/08 08:48:21;;;;;;;;;;;14.90;99.90;;;;;;5041286;28;19936;-79
2022/11/08 08:50:48;;;;;;;;;;;14.90;99.90;;;;;;5057134;28;19924;-78
2022/11/08 08:53:15;;;;;;;;;;;15.00;99.90;;;;;;5057037;28;20275;-79
2022/11/08 08:55:43;;;;;;;;;;;15.00;99.90;;;;;;5056167;28;20410;-78
2022/11/08 08:58:11;;;;;;;;;;;15.00;99.90;;;;;;5056166;28;19924;-79
2022/11/08 09:00:41;;;;;;;;;;;15.10;99.90;;;;;;5074586;28;19932;-79
2022/11/08 09:03:09;;;;;;;;;;;15.20;99.90;;;;;;5051426;28;20043;-79
2022/11/08 09:05:36;;;;;;;;;;;15.20;99.90;;;;;;5052414;28;19951;-79
2022/11/08 09:08:06;;;;;;;;;;;15.20;99.90;;;;;;5032275;28;19925;-79
2022/11/08 09:10:33;;;;;;;;;;;15.30;99.90;;;;;;5049988;28;20402;-79
2022/11/08 09:13:02;;;;;;;;;;;15.30;99.90;;;;;;5053825;28;19935;-79
2022/11/08 09:15:29;;;;;;;;;;;15.30;99.90;;;;;;5056624;28;19928;-79
2022/11/08 09:17:56;;;;;;;;;;;15.30;99.90;;;;;;5053603;28;19972;-79
2022/11/08 09:20:23;;;;;;;;;;;15.30;99.90;;;;;;5063414;28;19971;-79
2022/11/08 09:22:50;;;;;;;;;;;15.40;99.90;;;;;;5053172;28;19929;-80
2022/11/08 09:25:18;;;;;;;;;;;15.30;99.90;;;;;;5031405;28;19935;-78
2022/11/08 09:27:45;;;;;;;;;;;15.40;99.90;;;;;;5034130;28;19932;-79
2022/11/08 09:30:13;;;;;;;;;;;15.40;99.90;;;;;;5034305;28;19940;-78
2022/11/08 09:32:41;;;;;;;;;;;15.40;99.90;;;;;;5060260;28;19928;-78
2022/11/08 09:35:08;;;;;;;;;;;15.40;99.90;;;;;;5055201;28;19936;-79
2022/11/08 09:37:35;;;;;;;;;;;15.50;99.90;;;;;;5038547;28;19936;-79
2022/11/08 09:40:02;;;;;;;;;;;15.40;99.90;;;;;;5034730;28;19929;-79
2022/11/08 09:42:40;;;;;;;;;;;15.50;99.90;;;;;;5042285;28;19932;-78
2022/11/08 09:45:15;;;;;;;;;;;15.40;99.90;;;;;;5042360;28;20303;-78
2022/11/08 09:47:45;;;;;;;;;;;15.40;99.90;;;;;;5041706;28;20521;-79
2022/11/08 09:50:16;;;;;;;;;;;15.50;99.90;;;;;;5056096;28;19929;-79
2022/11/08 09:52:45;;;;;;;;;;;15.50;99.90;;;;;;5053246;28;19952;-77
2022/11/08 09:55:20;;;;;;;;;;;15.60;99.90;;;;;;5053417;28;19928;-78
2022/11/08 09:57:54;;;;;;;;;;;15.50;99.90;;;;;;5053340;28;19982;-78
2022/11/08 10:00:21;;;;;;;;;;;15.60;99.90;;;;;;5037720;28;20360;-78
2022/11/08 10:02:50;;;;;;;;;;;15.60;99.90;;;;;;5037292;28;20039;-79
2022/11/08 10:05:19;;;;;;;;;;;15.60;99.90;;;;;;5056493;28;19970;-78
2022/11/08 10:07:48;;;;;;;;;;;15.60;99.90;;;;;;5038202;28;19928;-79
2022/11/08 10:10:27;;;;;;;;;;;15.60;99.90;;;;;;5042091;28;19928;-79
2022/11/08 10:12:59;;;;;;;;;;;15.60;99.90;;;;;;5033573;28;19928;-79
2022/11/08 10:15:31;;;;;;;;;;;15.60;99.90;;;;;;5034106;28;19959;-79
2022/11/08 10:18:18;;;;;;;;;;;15.60;99.90;;;;;;5052978;28;19925;-78
2022/11/08 10:20:56;;;;;;;;;;;15.60;99.90;;;;;;5024805;28;19929;-79
2022/11/08 10:23:27;;;;;;;;;;;15.60;99.90;;;;;;5054216;28;19929;-79
2022/11/08 10:25:55;;;;;;;;;;;15.70;99.90;;;;;;5033912;28;19958;-78
2022/11/08 10:28:24;;;;;;;;;;;15.80;99.90;;;;;;5050535;28;20394;-78
2022/11/08 10:30:52;;;;;;;;;;;15.80;99.90;;;;;;5053041;28;20022;-78
2022/11/08 10:33:22;;;;;;;;;;;15.80;99.90;;;;;;5061904;28;19928;-79
2022/11/08 10:35:55;;;;;;;;;;;15.90;99.90;;;;;;5036200;28;19986;-79
2022/11/08 10:38:24;;;;;;;;;;;15.90;99.90;;;;;;5053212;28;19978;-79
2022/11/08 10:40:56;;;;;;;;;;;16.00;99.90;;;;;;5045677;28;19925;-78
2022/11/08 10:43:26;;;;;;;;;;;16.00;99.90;;;;;;5045815;28;19925;-79
2022/11/08 10:45:53;;;;;;;;;;;16.10;99.90;;;;;;5031856;28;19928;-79
2022/11/08 10:48:20;;;;;;;;;;;16.20;99.90;;;;;;5051099;28;19929;-80
2022/11/08 10:50:49;;;;;;;;;;;16.30;99.90;;;;;;5032211;28;19928;-80
2022/11/08 10:53:20;;;;;;;;;;;16.40;99.90;;;;;;5034055;28;19990;-79
2022/11/08 10:55:48;;;;;;;;;;;16.50;99.90;;;;;;5046502;28;20062;-80
2022/11/08 10:58:32;;;;;;;;;;;16.50;99.90;;;;;;5044487;28;19928;-80
2022/11/08 11:01:00;;;;;;;;;;;16.50;99.90;;;;;;5044936;28;20027;-80
2022/11/08 11:03:29;;;;;;;;;;;16.50;99.90;;;;;;5051301;28;19952;-80
2022/11/08 11:05:58;;;;;;;;;;;16.50;99.90;;;;;;5045837;28;20535;-79
2022/11/08 11:08:26;;;;;;;;;;;16.60;99.90;;;;;;5029496;28;20345;-79
2022/11/08 11:10:54;;;;;;;;;;;16.60;99.90;;;;;;5034469;28;20066;-80
2022/11/08 11:13:22;;;;;;;;;;;16.60;99.90;;;;;;5053208;28;19929;-79
2022/11/08 11:15:50;;;;;;;;;;;16.70;99.90;;;;;;5037558;28;20356;-80
2022/11/08 11:18:25;;;;;;;;;;;16.80;99.90;;;;;;5047308;28;20431;-79
2022/11/08 11:21:13;;;;;;;;;;;16.90;99.90;;;;;;5053335;28;19990;-79
2022/11/08 11:23:44;;;;;;;;;;;17.30;99.90;;;;;;5029784;28;19998;-79
2022/11/08 11:26:18;;;;;;;;;;;17.30;99.90;;;;;;5052517;28;19944;-79
2022/11/08 11:29:00;;;;;;;;;;;17.40;99.90;;;;;;5053853;28;19929;-78
2022/11/08 11:31:31;;;;;;;;;;;17.40;99.90;;;;;;5034784;28;20327;-79
2022/11/08 11:33:58;;;;;;;;;;;17.30;99.90;;;;;;5043551;28;19925;-79
2022/11/08 11:36:32;;;;;;;;;;;17.30;99.90;;;;;;5036285;28;19935;-80
2022/11/08 11:39:04;;;;;;;;;;;17.30;99.90;;;;;;5055098;28;19989;-79
2022/11/08 11:41:35;;;;;;;;;;;17.30;99.90;;;;;;5041350;28;19932;-79
2022/11/08 11:44:05;;;;;;;;;;;17.30;99.90;;;;;;5035273;28;20448;-83
2022/11/08 11:46:34;;;;;;;;;;;17.40;99.90;;;;;;5042072;28;19929;-83
2022/11/08 11:49:03;;;;;;;;;;;17.40;99.90;;;;;;5037118;28;20363;-82
2022/11/08 11:51:30;;;;;;;;;;;17.40;99.90;;;;;;5032318;28;19998;-83
2022/11/08 11:54:02;;;;;;;;;;;17.40;99.90;;;;;;5057596;28;19940;-82
2022/11/08 11:56:49;;;;;;;;;;;17.40;99.90;;;;;;5054244;28;20390;-81
2022/11/08 11:59:35;;;;;;;;;;;17.40;99.90;;;;;;5053806;28;19982;-82
2022/11/08 12:02:16;;;;;;;;;;;17.60;99.90;;;;;;5055359;28;19935;-83
2022/11/08 12:04:53;;;;;;;;;;;17.70;99.90;;;;;;5054350;28;19935;-82
2022/11/08 12:07:23;;;;;;;;;;;17.70;99.90;;;;;;5050938;28;19933;-80
2022/11/08 12:09:59;;;;;;;;;;;17.80;99.90;;;;;;5040328;28;20265;-80
2022/11/08 12:12:33;;;;;;;;;;;18.00;99.90;;;;;;5053626;28;19925;-80
2022/11/08 12:15:03;;;;;;;;;;;18.20;99.90;;;;;;5038977;28;20368;-80
2022/11/08 12:17:49;;;;;;;;;;;18.40;99.90;;;;;;5049538;28;19936;-80
2022/11/08 12:20:30;;;;;;;;;;;18.50;99.90;;;;;;5049229;28;19929;-80
2022/11/08 12:23:05;;;;;;;;;;;18.60;99.90;;;;;;5052407;28;20013;-81
2022/11/08 12:25:36;;;;;;;;;;;18.50;99.90;;;;;;5058114;28;19929;-81
2022/11/08 12:28:09;;;;;;;;;;;18.50;99.90;;;;;;5048790;28;19979;-79
2022/11/08 12:30:38;;;;;;;;;;;18.60;99.90;;;;;;5031360;28;20526;-79
2022/11/08 12:33:13;;;;;;;;;;;18.60;99.90;;;;;;5038107;28;19985;-80
2022/11/08 12:35:44;;;;;;;;;;;18.70;99.90;;;;;;5057698;28;19975;-79
2022/11/08 12:38:16;;;;;;;;;;;18.70;99.90;;;;;;5040880;28;20360;-79
2022/11/08 12:40:48;;;;;;;;;;;18.60;99.90;;;;;;5053462;28;19932;-79
2022/11/08 12:43:25;;;;;;;;;;;18.50;99.90;;;;;;5065332;28;19925;-79
2022/11/08 12:46:00;;;;;;;;;;;18.50;99.90;;;;;;5060388;28;20248;-80
2022/11/08 12:48:32;;;;;;;;;;;18.50;99.90;;;;;;5042652;28;19944;-78
2022/11/08 12:51:02;;;;;;;;;;;18.50;99.90;;;;;;5053892;28;19932;-78
2022/11/08 12:53:50;;;;;;;;;;;18.50;99.90;;;;;;5051353;28;19929;-78
2022/11/08 12:56:21;;;;;;;;;;;18.50;99.90;;;;;;5049035;28;20253;-77
2022/11/08 12:58:49;;;;;;;;;;;18.40;99.90;;;;;;5032323;28;19929;-77
2022/11/08 13:01:17;;;;;;;;;;;18.20;99.90;;;;;;5040598;28;19924;-77
2022/11/08 13:03:55;;;;;;;;;;;18.30;99.90;;;;;;5030533;28;19928;-78
2022/11/08 13:06:24;;;;;;;;;;;18.20;99.90;;;;;;5035801;28;19929;-78
2022/11/08 13:08:56;;;;;;;;;;;18.30;99.90;;;;;;5036734;28;19928;-78
2022/11/08 13:11:29;;;;;;;;;;;18.30;99.90;;;;;;5061373;28;19982;-78
2022/11/08 13:13:59;;;;;;;;;;;18.30;99.90;;;;;;5060027;28;19990;-78
2022/11/08 13:16:27;;;;;;;;;;;18.30;99.90;;;;;;5056489;28;19955;-77
2022/11/08 13:18:55;;;;;;;;;;;18.20;99.90;;;;;;5063363;28;19936;-77
2022/11/08 13:21:37;;;;;;;;;;;18.10;99.90;;;;;;5045368;28;20607;-77
2022/11/08 13:24:22;;;;;;;;;;;17.90;99.90;;;;;;5033039;28;20011;-77
2022/11/08 13:26:50;;;;;;;;;;;17.90;99.90;;;;;;5041266;28;20028;-77
2022/11/08 13:29:24;;;;;;;;;;;17.80;99.90;;;;;;5039948;28;19939;-78
2022/11/08 13:31:52;;;;;;;;;;;17.80;99.90;;;;;;5045320;28;19992;-78
2022/11/08 13:34:26;;;;;;;;;;;17.80;99.90;;;;;;5059756;28;20023;-79
2022/11/08 13:37:04;;;;;;;;;;;17.80;99.90;;;;;;5041221;28;20029;-78
2022/11/08 13:39:47;;;;;;;;;;;17.80;99.90;;;;;;5042593;28;19929;-79
2022/11/08 13:42:41;;;;;;;;;;;17.70;99.90;;;;;;5063346;28;19929;-78
2022/11/08 13:45:22;;;;;;;;;;;17.70;99.90;;;;;;5022260;28;19929;-77
2022/11/08 13:47:52;;;;;;;;;;;17.60;99.90;;;;;;5054250;28;19955;-77
2022/11/08 13:50:38;;;;;;;;;;;17.60;99.90;;;;;;5043517;28;19952;-78
2022/11/08 13:53:08;;;;;;;;;;;17.60;99.90;;;;;;5047421;28;19994;-78
2022/11/08 13:55:44;;;;;;;;;;;17.60;99.90;;;;;;5039025;28;19944;-76
2022/11/08 13:58:26;;;;;;;;;;;17.60;99.90;;;;;;5052745;28;19929;-77
2022/11/08 14:00:54;;;;;;;;;;;17.50;99.90;;;;;;5036946;28;20033;-78
2022/11/08 14:03:40;;;;;;;;;;;17.50;99.90;;;;;;5036199;28;19940;-78
2022/11/08 14:06:10;;;;;;;;;;;17.40;99.90;;;;;;5034388;28;19983;-78
2022/11/08 14:08:39;;;;;;;;;;;17.40;99.90;;;;;;5038385;28;19924;-80
2022/11/08 14:11:24;;;;;;;;;;;17.40;99.90;;;;;;5037325;28;19962;-79
2022/11/08 14:13:59;;;;;;;;;;;17.30;99.90;;;;;;5070707;28;19932;-79
2022/11/08 14:16:29;;;;;;;;;;;17.30;99.90;;;;;;5057525;28;20062;-79
2022/11/08 14:19:05;;;;;;;;;;;17.20;99.90;;;;;;5069465;28;19940;-79
2022/11/08 14:21:34;;;;;;;;;;;17.20;99.90;;;;;;5033809;28;19929;-79
2022/11/08 14:24:01;;;;;;;;;;;17.20;99.90;;;;;;5037692;28;19929;-79
2022/11/08 14:26:30;;;;;;;;;;;17.20;99.90;;;;;;5038937;28;19925;-80
2022/11/08 14:29:08;;;;;;;;;;;17.10;99.90;;;;;;5034350;28;19937;-77
2022/11/08 14:31:37;;;;;;;;;;;17.00;99.90;;;;;;5030078;28;19929;-78
2022/11/08 14:34:04;;;;;;;;;;;17.00;99.90;;;;;;5024082;28;20000;-77
2022/11/08 14:36:31;;;;;;;;;;;16.90;99.90;;;;;;5045411;28;19932;-77
2022/11/08 14:39:01;;;;;;;;;;;16.80;99.90;;;;;;5041057;28;19941;-76
2022/11/08 14:41:29;;;;;;;;;;;16.70;99.90;;;;;;5023310;28;19952;-77
2022/11/08 14:43:57;;;;;;;;;;;16.60;99.90;;;;;;5040675;28;19924;-78
2022/11/08 14:46:28;;;;;;;;;;;16.70;99.90;;;;;;5044562;28;21846;-78
2022/11/08 14:48:57;;;;;;;;;;;16.60;99.90;;;;;;5034309;28;19936;-78